TAM4780 SBPA-SBFL
Flight info
| Callsign | TAM4780 |
|---|---|
| Flight time | 0h 39m |
| Altitude | 29000 |
| Route | ANLER UM540 DADMO |
| Aircraft | A320/M-SDE3FGHIRWY/LB1 |
Departure
| Time | 2026-05-01 13:21 |
|---|---|
| Airport | Porto Alegre-Salgado Filho International Airport (SBPA) |
Arrival
| Time | 2026-05-01 14:00 |
|---|---|
| Airport | Hercílio Luz International Airport (SBFL) |
| Time | Latitude | Longitude | Altitude | Speed | Heading |
|---|---|---|---|---|---|
| 2026-05-01 12:55 | -29.99135 | -51.17436 | 19 ft | 0 kts | 1° |
| 2026-05-01 13:12 | -29.99146 | -51.17437 | 19 ft | 3 kts | 355° |
| 2026-05-01 13:12 | -29.99168 | -51.17431 | 22 ft | 3 kts | 324° |
| 2026-05-01 13:13 | -29.99181 | -51.17412 | 21 ft | 3 kts | 274° |
| 2026-05-01 13:13 | -29.99181 | -51.17408 | 21 ft | 0 kts | 271° |
| 2026-05-01 13:16 | -29.99181 | -51.17411 | 21 ft | 2 kts | 271° |
| 2026-05-01 13:16 | -29.99180 | -51.17448 | 22 ft | 7 kts | 271° |
| 2026-05-01 13:16 | -29.99179 | -51.17513 | 19 ft | 10 kts | 271° |
| 2026-05-01 13:17 | -29.99222 | -51.17698 | 19 ft | 10 kts | 181° |
| 2026-05-01 13:17 | -29.99285 | -51.17747 | 19 ft | 14 kts | 261° |
| 2026-05-01 13:18 | -29.99282 | -51.17927 | 19 ft | 12 kts | 272° |
| 2026-05-01 13:18 | -29.99282 | -51.17985 | 19 ft | 8 kts | 264° |
| 2026-05-01 13:18 | -29.99295 | -51.18032 | 21 ft | 10 kts | 250° |
| 2026-05-01 13:18 | -29.99320 | -51.18110 | 22 ft | 11 kts | 249° |
| 2026-05-01 13:19 | -29.99352 | -51.18206 | 19 ft | 15 kts | 246° |
| 2026-05-01 13:19 | -29.99405 | -51.18266 | 20 ft | 8 kts | 216° |
| 2026-05-01 13:19 | -29.99441 | -51.18244 | 21 ft | 0 kts | 90° |
| 2026-05-01 13:20 | -29.99442 | -51.18097 | 21 ft | 54 kts | 91° |
| 2026-05-01 13:20 | -29.99455 | -51.17398 | 18 ft | 118 kts | 91° |
| 2026-05-01 13:20 | -29.99468 | -51.16664 | 19 ft | 151 kts | 90° |
| 2026-05-01 13:21 | -29.99510 | -51.14056 | 1029 ft | 174 kts | 89° |
| 2026-05-01 13:21 | -29.99537 | -51.12573 | 1410 ft | 196 kts | 88° |
| 2026-05-01 13:21 | -29.99563 | -51.10897 | 1845 ft | 221 kts | 87° |
| 2026-05-01 13:21 | -29.99591 | -51.09051 | 2347 ft | 246 kts | 86° |
| 2026-05-01 13:22 | -29.99616 | -51.07001 | 2975 ft | 262 kts | 83° |
| 2026-05-01 13:22 | -29.99182 | -51.04960 | 3740 ft | 264 kts | 58° |
| 2026-05-01 13:22 | -29.98031 | -51.03330 | 4638 ft | 264 kts | 38° |
| 2026-05-01 13:22 | -29.96616 | -51.01947 | 5507 ft | 268 kts | 38° |
| 2026-05-01 13:23 | -29.95176 | -51.00560 | 6398 ft | 272 kts | 38° |
| 2026-05-01 13:23 | -29.93714 | -50.99156 | 7237 ft | 276 kts | 37° |
| 2026-05-01 13:23 | -29.92227 | -50.97725 | 8029 ft | 281 kts | 37° |
| 2026-05-01 13:23 | -29.90710 | -50.96269 | 8800 ft | 287 kts | 37° |
| 2026-05-01 13:24 | -29.89161 | -50.94779 | 9565 ft | 293 kts | 37° |
| 2026-05-01 13:24 | -29.87579 | -50.93252 | 10250 ft | 302 kts | 37° |
| 2026-05-01 13:24 | -29.85904 | -50.91638 | 10515 ft | 325 kts | 37° |
| 2026-05-01 13:25 | -29.82249 | -50.88123 | 11434 ft | 351 kts | 37° |
| 2026-05-01 13:25 | -29.80365 | -50.86305 | 12186 ft | 355 kts | 37° |
| 2026-05-01 13:25 | -29.78468 | -50.84475 | 12920 ft | 358 kts | 36° |
| 2026-05-01 13:25 | -29.76551 | -50.82623 | 13634 ft | 362 kts | 36° |
| 2026-05-01 13:26 | -29.74615 | -50.80753 | 14298 ft | 365 kts | 36° |
| 2026-05-01 13:26 | -29.72662 | -50.78868 | 14932 ft | 368 kts | 36° |
| 2026-05-01 13:26 | -29.70691 | -50.76971 | 15593 ft | 370 kts | 36° |
| 2026-05-01 13:26 | -29.68734 | -50.75088 | 16252 ft | 373 kts | 36° |
| 2026-05-01 13:27 | -29.66737 | -50.73169 | 16898 ft | 375 kts | 35° |
| 2026-05-01 13:27 | -29.64724 | -50.71240 | 17537 ft | 378 kts | 35° |
| 2026-05-01 13:27 | -29.60651 | -50.67345 | 18737 ft | 384 kts | 35° |
| 2026-05-01 13:28 | -29.56509 | -50.63379 | 19726 ft | 392 kts | 34° |
| 2026-05-01 13:28 | -29.54407 | -50.61363 | 20182 ft | 396 kts | 34° |
| 2026-05-01 13:29 | -29.50126 | -50.57262 | 21088 ft | 405 kts | 34° |
| 2026-05-01 13:29 | -29.45766 | -50.53068 | 21973 ft | 413 kts | 34° |
| 2026-05-01 13:30 | -29.36917 | -50.44249 | 23683 ft | 429 kts | 34° |
| 2026-05-01 13:31 | -29.32368 | -50.39728 | 24368 ft | 436 kts | 34° |
| 2026-05-01 13:31 | -29.25340 | -50.32983 | 25428 ft | 442 kts | 30° |
| 2026-05-01 13:32 | -29.20378 | -50.28798 | 26104 ft | 445 kts | 28° |
| 2026-05-01 13:33 | -29.12808 | -50.22518 | 27118 ft | 455 kts | 29° |
| 2026-05-01 13:33 | -29.07703 | -50.18172 | 27790 ft | 460 kts | 29° |
| 2026-05-01 13:34 | -29.02536 | -50.13753 | 28462 ft | 466 kts | 29° |
| 2026-05-01 13:34 | -28.97305 | -50.09298 | 29096 ft | 471 kts | 29° |
| 2026-05-01 13:35 | -28.92122 | -50.04878 | 29175 ft | 457 kts | 28° |
| 2026-05-01 13:35 | -28.89587 | -50.02718 | 29175 ft | 454 kts | 28° |
| 2026-05-01 13:36 | -28.81986 | -49.96304 | 29165 ft | 452 kts | 29° |
| 2026-05-01 13:36 | -28.74422 | -49.89914 | 29181 ft | 452 kts | 28° |
| 2026-05-01 13:37 | -28.69375 | -49.85651 | 29165 ft | 450 kts | 28° |
| 2026-05-01 13:37 | -28.64343 | -49.81407 | 29154 ft | 450 kts | 28° |
| 2026-05-01 13:38 | -28.56777 | -49.75034 | 29153 ft | 452 kts | 28° |
| 2026-05-01 13:39 | -28.51726 | -49.70781 | 29160 ft | 451 kts | 29° |
| 2026-05-01 13:39 | -28.46682 | -49.66539 | 29176 ft | 450 kts | 29° |
| 2026-05-01 13:40 | -28.41645 | -49.62309 | 29175 ft | 449 kts | 28° |
| 2026-05-01 13:40 | -28.36614 | -49.58100 | 29179 ft | 449 kts | 28° |
| 2026-05-01 13:41 | -28.31583 | -49.53895 | 29176 ft | 449 kts | 28° |
| 2026-05-01 13:41 | -28.26550 | -49.49690 | 28898 ft | 450 kts | 30° |
| 2026-05-01 13:41 | -28.24038 | -49.47587 | 28285 ft | 446 kts | 30° |
| 2026-05-01 13:42 | -28.21590 | -49.45536 | 27723 ft | 442 kts | 29° |
| 2026-05-01 13:42 | -28.19123 | -49.43471 | 27134 ft | 439 kts | 30° |
| 2026-05-01 13:42 | -28.16674 | -49.41426 | 26564 ft | 436 kts | 30° |
| 2026-05-01 13:42 | -28.14241 | -49.39401 | 26010 ft | 432 kts | 30° |
| 2026-05-01 13:43 | -28.11827 | -49.37390 | 25457 ft | 429 kts | 30° |
| 2026-05-01 13:43 | -28.09432 | -49.35395 | 24943 ft | 425 kts | 30° |
| 2026-05-01 13:43 | -28.07054 | -49.33424 | 24415 ft | 422 kts | 30° |
| 2026-05-01 13:43 | -28.04688 | -49.31480 | 23908 ft | 419 kts | 30° |
| 2026-05-01 13:44 | -28.02328 | -49.29550 | 23352 ft | 416 kts | 31° |
| 2026-05-01 13:44 | -27.99997 | -49.27646 | 22849 ft | 411 kts | 30° |
| 2026-05-01 13:44 | -27.97692 | -49.25761 | 22385 ft | 407 kts | 31° |
| 2026-05-01 13:44 | -27.95413 | -49.23898 | 21896 ft | 402 kts | 31° |
| 2026-05-01 13:45 | -27.93146 | -49.22052 | 21315 ft | 401 kts | 31° |
| 2026-05-01 13:45 | -27.90882 | -49.20211 | 20789 ft | 399 kts | 31° |
| 2026-05-01 13:45 | -27.88643 | -49.18385 | 20296 ft | 396 kts | 32° |
| 2026-05-01 13:45 | -27.86413 | -49.16564 | 19782 ft | 394 kts | 32° |
| 2026-05-01 13:46 | -27.84227 | -49.14778 | 19294 ft | 392 kts | 32° |
| 2026-05-01 13:46 | -27.82046 | -49.12933 | 18774 ft | 392 kts | 34° |
| 2026-05-01 13:46 | -27.79909 | -49.11015 | 18213 ft | 392 kts | 36° |
| 2026-05-01 13:46 | -27.77810 | -49.09058 | 17681 ft | 390 kts | 37° |
| 2026-05-01 13:47 | -27.75739 | -49.07103 | 17158 ft | 387 kts | 37° |
| 2026-05-01 13:47 | -27.73678 | -49.05166 | 16673 ft | 384 kts | 37° |
| 2026-05-01 13:47 | -27.71618 | -49.03256 | 16173 ft | 382 kts | 36° |
| 2026-05-01 13:47 | -27.69565 | -49.01371 | 15678 ft | 380 kts | 36° |
| 2026-05-01 13:48 | -27.67526 | -48.99490 | 15182 ft | 378 kts | 39° |
| 2026-05-01 13:48 | -27.65822 | -48.97226 | 14687 ft | 381 kts | 56° |
| 2026-05-01 13:48 | -27.64768 | -48.94490 | 14186 ft | 383 kts | 74° |
| 2026-05-01 13:48 | -27.64482 | -48.91515 | 13729 ft | 381 kts | 92° |
| 2026-05-01 13:49 | -27.64823 | -48.88600 | 13186 ft | 377 kts | 99° |
| 2026-05-01 13:49 | -27.65243 | -48.85730 | 12601 ft | 363 kts | 99° |
| 2026-05-01 13:49 | -27.65641 | -48.82981 | 12103 ft | 349 kts | 99° |
| 2026-05-01 13:49 | -27.66022 | -48.80326 | 11622 ft | 338 kts | 99° |
| 2026-05-01 13:50 | -27.66496 | -48.77733 | 11147 ft | 339 kts | 107° |
| 2026-05-01 13:50 | -27.67420 | -48.75294 | 10676 ft | 339 kts | 120° |
| 2026-05-01 13:50 | -27.68639 | -48.73047 | 10442 ft | 330 kts | 122° |
| 2026-05-01 13:50 | -27.69819 | -48.70878 | 10323 ft | 319 kts | 122° |
| 2026-05-01 13:51 | -27.70957 | -48.68774 | 10017 ft | 308 kts | 122° |
| 2026-05-01 13:51 | -27.72064 | -48.66721 | 9631 ft | 309 kts | 122° |
| 2026-05-01 13:51 | -27.73184 | -48.64644 | 9095 ft | 312 kts | 121° |
| 2026-05-01 13:51 | -27.74305 | -48.62564 | 8810 ft | 306 kts | 121° |
| 2026-05-01 13:52 | -27.75399 | -48.60533 | 8190 ft | 302 kts | 120° |
| 2026-05-01 13:52 | -27.76482 | -48.58520 | 7556 ft | 298 kts | 120° |
| 2026-05-01 13:52 | -27.77553 | -48.56529 | 6929 ft | 295 kts | 120° |
| 2026-05-01 13:52 | -27.78610 | -48.54560 | 6301 ft | 291 kts | 119° |
| 2026-05-01 13:53 | -27.79656 | -48.52616 | 5655 ft | 288 kts | 118° |
| 2026-05-01 13:53 | -27.81604 | -48.49012 | 5374 ft | 249 kts | 117° |
| 2026-05-01 13:53 | -27.82489 | -48.47375 | 5290 ft | 241 kts | 117° |
| 2026-05-01 13:54 | -27.83353 | -48.45766 | 5190 ft | 239 kts | 117° |
| 2026-05-01 13:54 | -27.83902 | -48.44065 | 5084 ft | 224 kts | 87° |
| 2026-05-01 13:54 | -27.83577 | -48.42441 | 4932 ft | 208 kts | 57° |
| 2026-05-01 13:54 | -27.82559 | -48.41278 | 4401 ft | 215 kts | 30° |
| 2026-05-01 13:55 | -27.81262 | -48.40407 | 3847 ft | 219 kts | 30° |
| 2026-05-01 13:55 | -27.79967 | -48.39542 | 3347 ft | 219 kts | 30° |
| 2026-05-01 13:55 | -27.78668 | -48.38669 | 3158 ft | 206 kts | 30° |
| 2026-05-01 13:55 | -27.77488 | -48.37900 | 3114 ft | 194 kts | 23° |
| 2026-05-01 13:56 | -27.76238 | -48.37827 | 3107 ft | 177 kts | 340° |
| 2026-05-01 13:56 | -27.75354 | -48.38761 | 2874 ft | 179 kts | 305° |
| 2026-05-01 13:56 | -27.74713 | -48.39956 | 2632 ft | 177 kts | 304° |
| 2026-05-01 13:56 | -27.74085 | -48.41135 | 2404 ft | 174 kts | 304° |
| 2026-05-01 13:57 | -27.73465 | -48.42296 | 2178 ft | 172 kts | 304° |
| 2026-05-01 13:57 | -27.73056 | -48.43058 | 2038 ft | 171 kts | 304° |
| 2026-05-01 13:57 | -27.72240 | -48.44576 | 1762 ft | 166 kts | 303° |
| 2026-05-01 13:57 | -27.71650 | -48.45673 | 1541 ft | 160 kts | 303° |
| 2026-05-01 13:58 | -27.71085 | -48.46727 | 1323 ft | 153 kts | 305° |
| 2026-05-01 13:58 | -27.70548 | -48.47729 | 1124 ft | 145 kts | 306° |
| 2026-05-01 13:58 | -27.70038 | -48.48681 | 931 ft | 140 kts | 303° |
| 2026-05-01 13:58 | -27.69534 | -48.49618 | 757 ft | 139 kts | 304° |
| 2026-05-01 13:59 | -27.69033 | -48.50550 | 571 ft | 139 kts | 303° |
| 2026-05-01 13:59 | -27.68528 | -48.51486 | 383 ft | 139 kts | 306° |
| 2026-05-01 13:59 | -27.68025 | -48.52417 | 207 ft | 140 kts | 304° |
| 2026-05-01 13:59 | -27.67528 | -48.53345 | 35 ft | 138 kts | 303° |
| 2026-05-01 14:00 | -27.67147 | -48.54053 | 26 ft | 63 kts | 301° |
| 2026-05-01 14:00 | -27.67004 | -48.54317 | 28 ft | 32 kts | 301° |
| 2026-05-01 14:00 | -27.66936 | -48.54444 | 28 ft | 18 kts | 298° |
| 2026-05-01 14:00 | -27.66993 | -48.54533 | 27 ft | 13 kts | 212° |
| 2026-05-01 14:01 | -27.67050 | -48.54572 | 27 ft | 7 kts | 211° |
| 2026-05-01 14:01 | -27.67089 | -48.54598 | 27 ft | 6 kts | 210° |
| 2026-05-01 14:01 | -27.67125 | -48.54620 | 27 ft | 5 kts | 198° |
| 2026-05-01 14:01 | -27.67158 | -48.54621 | 27 ft | 4 kts | 175° |
| 2026-05-01 14:02 | -27.67183 | -48.54611 | 27 ft | 3 kts | 151° |
| 2026-05-01 14:02 | -27.67198 | -48.54598 | 27 ft | 2 kts | 127° |
| 2026-05-01 14:02 | -27.67203 | -48.54589 | 27 ft | 1 kts | 121° |
| 2026-05-01 14:02 | -27.67211 | -48.54574 | 27 ft | 4 kts | 122° |
| 2026-05-01 14:03 | -27.67229 | -48.54543 | 27 ft | 6 kts | 122° |
| 2026-05-01 14:03 | -27.67250 | -48.54504 | 27 ft | 3 kts | 122° |
| 2026-05-01 14:03 | -27.67272 | -48.54486 | 27 ft | 4 kts | 174° |
| 2026-05-01 14:03 | -27.67300 | -48.54500 | 27 ft | 3 kts | 210° |
| 2026-05-01 14:04 | -27.67309 | -48.54506 | 27 ft | 0 kts | 211° |